sensor_id;sensor_type;location;lat;lon;timestamp;pressure;altitude;pressure_sealevel;temperature;humidity
63694;BME280;49839;51.798;10.954;2022-08-24T00:01:25;99427.50;;;19.90;nan
63694;BME280;49839;51.798;10.954;2022-08-24T00:03:55;99431.88;;;19.91;nan
63694;BME280;49839;51.798;10.954;2022-08-24T00:06:25;99441.97;;;19.88;nan
63694;BME280;49839;51.798;10.954;2022-08-24T00:08:56;99432.63;;;19.72;nan
63694;BME280;49839;51.798;10.954;2022-08-24T00:11:25;99424.22;;;19.56;nan
63694;BME280;49839;51.798;10.954;2022-08-24T00:13:53;99426.84;;;19.46;nan
63694;BME280;49839;51.798;10.954;2022-08-24T00:16:21;99420.22;;;19.41;nan
63694;BME280;49839;51.798;10.954;2022-08-24T00:18:49;99412.91;;;19.43;nan
63694;BME280;49839;51.798;10.954;2022-08-24T00:21:17;99417.84;;;19.47;nan
63694;BME280;49839;51.798;10.954;2022-08-24T00:23:45;99416.31;;;19.45;nan
63694;BME280;49839;51.798;10.954;2022-08-24T00:26:16;99410.38;;;19.41;nan
63694;BME280;49839;51.798;10.954;2022-08-24T00:28:45;99417.16;;;19.45;nan
63694;BME280;49839;51.798;10.954;2022-08-24T00:31:12;99416.88;;;19.48;nan
63694;BME280;49839;51.798;10.954;2022-08-24T00:33:41;99420.97;;;19.53;nan
63694;BME280;49839;51.798;10.954;2022-08-24T00:36:08;99420.13;;;19.52;nan
63694;BME280;49839;51.798;10.954;2022-08-24T00:38:36;99417.47;;;19.52;nan
63694;BME280;49839;51.798;10.954;2022-08-24T00:41:04;99418.31;;;19.53;nan
63694;BME280;49839;51.798;10.954;2022-08-24T00:43:34;99419.16;;;19.53;nan
63694;BME280;49839;51.798;10.954;2022-08-24T00:46:05;99426.31;;;19.53;nan
63694;BME280;49839;51.798;10.954;2022-08-24T00:48:36;99414.66;;;19.54;nan
63694;BME280;49839;51.798;10.954;2022-08-24T00:51:11;99418.03;;;19.56;nan
63694;BME280;49839;51.798;10.954;2022-08-24T00:53:44;99420.69;;;19.56;nan
63694;BME280;49839;51.798;10.954;2022-08-24T00:56:19;99422.38;;;19.57;nan
63694;BME280;49839;51.798;10.954;2022-08-24T00:58:51;99424.09;;;19.58;nan
63694;BME280;49839;51.798;10.954;2022-08-24T01:01:23;99427.38;;;19.61;nan
63694;BME280;49839;51.798;10.954;2022-08-24T01:03:51;99424.69;;;19.61;nan
63694;BME280;49839;51.798;10.954;2022-08-24T01:06:22;99436.50;;;19.59;nan
63694;BME280;49839;51.798;10.954;2022-08-24T01:08:50;99437.56;;;19.56;nan
63694;BME280;49839;51.798;10.954;2022-08-24T01:11:23;99429.09;;;19.51;nan
63694;BME280;49839;51.798;10.954;2022-08-24T01:13:54;99431.59;;;19.43;nan
63694;BME280;49839;51.798;10.954;2022-08-24T01:16:22;99422.81;;;19.31;nan
63694;BME280;49839;51.798;10.954;2022-08-24T01:19:10;99436.84;;;19.24;nan
63694;BME280;49839;51.798;10.954;2022-08-24T01:21:49;99427.94;;;19.13;nan
63694;BME280;49839;51.798;10.954;2022-08-24T01:24:22;99434.38;;;19.11;nan
63694;BME280;49839;51.798;10.954;2022-08-24T01:26:49;99423.94;;;19.08;nan
63694;BME280;49839;51.798;10.954;2022-08-24T01:29:20;99423.94;;;19.08;nan
63694;BME280;49839;51.798;10.954;2022-08-24T01:31:49;99418.63;;;19.08;nan
63694;BME280;49839;51.798;10.954;2022-08-24T01:34:17;99424.78;;;19.08;nan
63694;BME280;49839;51.798;10.954;2022-08-24T01:36:49;99414.13;;;19.08;nan
63694;BME280;49839;51.798;10.954;2022-08-24T01:39:23;99414.13;;;19.08;nan
63694;BME280;49839;51.798;10.954;2022-08-24T01:41:52;99412.16;;;19.10;nan
63694;BME280;49839;51.798;10.954;2022-08-24T01:44:21;99405.97;;;19.10;nan
63694;BME280;49839;51.798;10.954;2022-08-24T01:46:52;99409.47;;;19.10;nan
63694;BME280;49839;51.798;10.954;2022-08-24T01:49:21;99410.31;;;19.11;nan
63694;BME280;49839;51.798;10.954;2022-08-24T01:51:49;99417.34;;;19.12;nan
63694;BME280;49839;51.798;10.954;2022-08-24T01:54:17;99416.66;;;19.10;nan
63694;BME280;49839;51.798;10.954;2022-08-24T01:56:46;99418.72;;;19.06;nan
63694;BME280;49839;51.798;10.954;2022-08-24T01:59:14;99412.09;;;19.01;nan
63694;BME280;49839;51.798;10.954;2022-08-24T02:01:45;99420.22;;;18.99;nan
63694;BME280;49839;51.798;10.954;2022-08-24T02:04:14;99417.88;;;19.06;nan
63694;BME280;49839;51.798;10.954;2022-08-24T02:06:43;99416.66;;;19.10;nan
63694;BME280;49839;51.798;10.954;2022-08-24T02:09:11;99423.53;;;19.12;nan
63694;BME280;49839;51.798;10.954;2022-08-24T02:11:39;99428.88;;;19.12;nan
63694;BME280;49839;51.798;10.954;2022-08-24T02:14:08;99435.63;;;19.07;nan
63694;BME280;49839;51.798;10.954;2022-08-24T02:16:36;99436.38;;;18.98;nan
63694;BME280;49839;51.798;10.954;2022-08-24T02:19:04;99433.50;;;18.89;nan
63694;BME280;49839;51.798;10.954;2022-08-24T02:21:32;99438.16;;;18.87;nan
63694;BME280;49839;51.798;10.954;2022-08-24T02:23:59;99435.72;;;18.84;nan
63694;BME280;49839;51.798;10.954;2022-08-24T02:26:27;99435.72;;;18.84;nan
63694;BME280;49839;51.798;10.954;2022-08-24T02:28:56;99439.59;;;18.80;nan
63694;BME280;49839;51.798;10.954;2022-08-24T02:31:26;99436.38;;;18.77;nan
63694;BME280;49839;51.798;10.954;2022-08-24T02:33:53;99441.84;;;18.75;nan
63694;BME280;49839;51.798;10.954;2022-08-24T02:36:21;99445.50;;;18.74;nan
63694;BME280;49839;51.798;10.954;2022-08-24T02:38:51;99435.91;;;18.72;nan
63694;BME280;49839;51.798;10.954;2022-08-24T02:41:19;99438.44;;;18.73;nan
63694;BME280;49839;51.798;10.954;2022-08-24T02:43:47;99439.41;;;18.72;nan
63694;BME280;49839;51.798;10.954;2022-08-24T02:46:18;99442.06;;;18.72;nan
63694;BME280;49839;51.798;10.954;2022-08-24T02:48:47;99440.38;;;18.71;nan
63694;BME280;49839;51.798;10.954;2022-08-24T02:51:25;99438.56;;;18.72;nan
63694;BME280;49839;51.798;10.954;2022-08-24T02:53:53;99433.38;;;18.70;nan
63694;BME280;49839;51.798;10.954;2022-08-24T02:56:21;99436.28;;;18.67;nan
63694;BME280;49839;51.798;10.954;2022-08-24T02:58:48;99436.66;;;18.62;nan
63694;BME280;49839;51.798;10.954;2022-08-24T03:01:17;99439.53;;;18.59;nan
63694;BME280;49839;51.798;10.954;2022-08-24T03:03:50;99443.34;;;18.57;nan
63694;BME280;49839;51.798;10.954;2022-08-24T03:06:18;99444.81;;;18.50;nan
63694;BME280;49839;51.798;10.954;2022-08-24T03:08:46;99447.25;;;18.41;nan
63694;BME280;49839;51.798;10.954;2022-08-24T03:11:16;99449.34;;;18.38;nan
63694;BME280;49839;51.798;10.954;2022-08-24T03:13:44;99452.50;;;18.32;nan
63694;BME280;49839;51.798;10.954;2022-08-24T03:16:12;99448.50;;;18.26;nan
63694;BME280;49839;51.798;10.954;2022-08-24T03:18:39;99454.94;;;18.24;nan
63694;BME280;49839;51.798;10.954;2022-08-24T03:21:09;99452.38;;;18.22;nan
63694;BME280;49839;51.798;10.954;2022-08-24T03:23:36;99452.50;;;18.21;nan
63694;BME280;49839;51.798;10.954;2022-08-24T03:26:04;99452.63;;;18.19;nan
63694;BME280;49839;51.798;10.954;2022-08-24T03:28:32;99456.41;;;18.17;nan
63694;BME280;49839;51.798;10.954;2022-08-24T03:30:59;99451.31;;;18.13;nan
63694;BME280;49839;51.798;10.954;2022-08-24T03:33:27;99453.63;;;18.07;nan
63694;BME280;49839;51.798;10.954;2022-08-24T03:35:55;99445.28;;;18.00;nan
63694;BME280;49839;51.798;10.954;2022-08-24T03:38:24;99452.78;;;17.95;nan
63694;BME280;49839;51.798;10.954;2022-08-24T03:40:52;99444.91;;;17.94;nan
63694;BME280;49839;51.798;10.954;2022-08-24T03:43:19;99450.00;;;17.97;nan
63694;BME280;49839;51.798;10.954;2022-08-24T03:46:05;99447.31;;;17.97;nan
63694;BME280;49839;51.798;10.954;2022-08-24T03:48:34;99453.63;;;17.96;nan
63694;BME280;49839;51.798;10.954;2022-08-24T03:51:02;99446.75;;;17.93;nan
63694;BME280;49839;51.798;10.954;2022-08-24T03:53:31;99455.44;;;17.95;nan
63694;BME280;49839;51.798;10.954;2022-08-24T03:55:58;99455.59;;;17.94;nan
63694;BME280;49839;51.798;10.954;2022-08-24T03:58:26;99453.63;;;17.96;nan
63694;BME280;49839;51.798;10.954;2022-08-24T04:00:54;99452.56;;;17.98;nan
63694;BME280;49839;51.798;10.954;2022-08-24T04:03:22;99459.59;;;17.99;nan
63694;BME280;49839;51.798;10.954;2022-08-24T04:05:49;99454.47;;;17.96;nan
63694;BME280;49839;51.798;10.954;2022-08-24T04:08:17;99456.44;;;17.94;nan
63694;BME280;49839;51.798;10.954;2022-08-24T04:10:47;99459.94;;;17.95;nan
63694;BME280;49839;51.798;10.954;2022-08-24T04:13:15;99461.63;;;17.96;nan
63694;BME280;49839;51.798;10.954;2022-08-24T04:15:43;99461.88;;;17.93;nan
63694;BME280;49839;51.798;10.954;2022-08-24T04:18:10;99460.81;;;17.84;nan
63694;BME280;49839;51.798;10.954;2022-08-24T04:20:40;99465.75;;;17.77;nan
63694;BME280;49839;51.798;10.954;2022-08-24T04:23:09;99464.31;;;17.84;nan
63694;BME280;49839;51.798;10.954;2022-08-24T04:25:40;99465.88;;;17.98;nan
63694;BME280;49839;51.798;10.954;2022-08-24T04:28:10;99461.28;;;18.11;nan
63694;BME280;49839;51.798;10.954;2022-08-24T04:30:39;99466.59;;;18.23;nan
63694;BME280;49839;51.798;10.954;2022-08-24T04:33:07;99472.00;;;18.32;nan
63694;BME280;49839;51.798;10.954;2022-08-24T04:35:37;99471.03;;;18.45;nan
63694;BME280;49839;51.798;10.954;2022-08-24T04:38:05;99474.09;;;18.61;nan
63694;BME280;49839;51.798;10.954;2022-08-24T04:40:33;99481.66;;;18.67;nan
63694;BME280;49839;51.798;10.954;2022-08-24T04:43:01;99483.50;;;18.55;nan
63694;BME280;49839;51.798;10.954;2022-08-24T04:45:30;99490.41;;;18.47;nan
63694;BME280;49839;51.798;10.954;2022-08-24T04:47:59;99495.03;;;18.45;nan
63694;BME280;49839;51.798;10.954;2022-08-24T04:50:26;99495.41;;;18.40;nan
63694;BME280;49839;51.798;10.954;2022-08-24T04:52:54;99499.31;;;18.36;nan
63694;BME280;49839;51.798;10.954;2022-08-24T04:55:22;99502.22;;;18.33;nan
63694;BME280;49839;51.798;10.954;2022-08-24T04:57:50;99502.47;;;18.30;nan
63694;BME280;49839;51.798;10.954;2022-08-24T05:00:18;99503.31;;;18.30;nan
63694;BME280;49839;51.798;10.954;2022-08-24T05:02:47;99507.66;;;18.31;nan
63694;BME280;49839;51.798;10.954;2022-08-24T05:05:15;99507.53;;;18.33;nan
63694;BME280;49839;51.798;10.954;2022-08-24T05:07:43;99504.88;;;18.33;nan
63694;BME280;49839;51.798;10.954;2022-08-24T05:10:11;99506.69;;;18.32;nan
63694;BME280;49839;51.798;10.954;2022-08-24T05:12:38;99508.66;;;18.30;nan
63694;BME280;49839;51.798;10.954;2022-08-24T05:15:07;99504.03;;;18.32;nan
63694;BME280;49839;51.798;10.954;2022-08-24T05:17:35;99517.97;;;18.36;nan
63694;BME280;49839;51.798;10.954;2022-08-24T05:20:04;99507.03;;;18.39;nan
63694;BME280;49839;51.798;10.954;2022-08-24T05:22:33;99509.72;;;18.39;nan
63694;BME280;49839;51.798;10.954;2022-08-24T05:25:01;99514.34;;;18.37;nan
63694;BME280;49839;51.798;10.954;2022-08-24T05:27:29;99514.06;;;18.40;nan
63694;BME280;49839;51.798;10.954;2022-08-24T05:29:57;99517.22;;;18.45;nan
63694;BME280;49839;51.798;10.954;2022-08-24T05:32:25;99514.69;;;18.44;nan
63694;BME280;49839;51.798;10.954;2022-08-24T05:34:52;99511.53;;;18.50;nan
63694;BME280;49839;51.798;10.954;2022-08-24T05:37:21;99513.56;;;18.57;nan
63694;BME280;49839;51.798;10.954;2022-08-24T05:39:49;99522.53;;;18.67;nan
63694;BME280;49839;51.798;10.954;2022-08-24T05:42:17;99515.94;;;18.83;nan
63694;BME280;49839;51.798;10.954;2022-08-24T05:44:45;99517.09;;;19.01;nan
63694;BME280;49839;51.798;10.954;2022-08-24T05:47:12;99515.06;;;19.26;nan
63694;BME280;49839;51.798;10.954;2022-08-24T05:49:40;99516.56;;;19.60;nan
63694;BME280;49839;51.798;10.954;2022-08-24T05:52:08;99518.81;;;20.16;nan
63694;BME280;49839;51.798;10.954;2022-08-24T05:54:37;99516.16;;;20.86;nan
63694;BME280;49839;51.798;10.954;2022-08-24T05:57:06;99524.09;;;21.45;nan
63694;BME280;49839;51.798;10.954;2022-08-24T05:59:33;99522.97;;;22.04;nan
63694;BME280;49839;51.798;10.954;2022-08-24T06:02:01;99517.41;;;22.70;nan
63694;BME280;49839;51.798;10.954;2022-08-24T06:04:30;99525.09;;;23.37;nan
63694;BME280;49839;51.798;10.954;2022-08-24T06:06:57;99519.53;;;23.74;nan
63694;BME280;49839;51.798;10.954;2022-08-24T06:09:25;99519.75;;;24.15;nan
63694;BME280;49839;51.798;10.954;2022-08-24T06:11:54;99519.06;;;24.47;nan
63694;BME280;49839;51.798;10.954;2022-08-24T06:14:22;99516.97;;;24.75;nan
63694;BME280;49839;51.798;10.954;2022-08-24T06:16:52;99525.06;;;24.91;nan
63694;BME280;49839;51.798;10.954;2022-08-24T06:19:22;99532.06;;;25.43;nan
63694;BME280;49839;51.798;10.954;2022-08-24T06:21:52;99526.81;;;25.90;nan
63694;BME280;49839;51.798;10.954;2022-08-24T06:24:21;99530.00;;;26.49;nan
63694;BME280;49839;51.798;10.954;2022-08-24T06:27:10;99528.09;;;26.89;nan
63694;BME280;49839;51.798;10.954;2022-08-24T06:29:47;99523.44;;;27.29;nan
63694;BME280;49839;51.798;10.954;2022-08-24T06:32:15;99525.97;;;27.68;nan
63694;BME280;49839;51.798;10.954;2022-08-24T06:34:42;99529.09;;;27.94;nan
63694;BME280;49839;51.798;10.954;2022-08-24T06:37:10;99524.53;;;28.24;nan
63694;BME280;49839;51.798;10.954;2022-08-24T06:39:37;99532.97;;;28.15;nan
63694;BME280;49839;51.798;10.954;2022-08-24T06:42:05;99525.78;;;28.37;nan
63694;BME280;49839;51.798;10.954;2022-08-24T06:44:34;99539.09;;;28.53;nan
63694;BME280;49839;51.798;10.954;2022-08-24T06:47:03;99537.34;;;28.45;nan
63694;BME280;49839;51.798;10.954;2022-08-24T06:49:31;99541.25;;;28.13;nan
63694;BME280;49839;51.798;10.954;2022-08-24T06:51:59;99536.81;;;28.35;nan
63694;BME280;49839;51.798;10.954;2022-08-24T06:54:26;99538.28;;;28.52;nan
63694;BME280;49839;51.798;10.954;2022-08-24T06:56:54;99545.88;;;28.27;nan
63694;BME280;49839;51.798;10.954;2022-08-24T06:59:24;99543.16;;;28.27;nan
63694;BME280;49839;51.798;10.954;2022-08-24T07:01:56;99549.47;;;28.64;nan
63694;BME280;49839;51.798;10.954;2022-08-24T07:04:25;99549.94;;;28.68;nan
63694;BME280;49839;51.798;10.954;2022-08-24T07:06:54;99541.94;;;28.96;nan
63694;BME280;49839;51.798;10.954;2022-08-24T07:09:22;99549.44;;;28.94;nan
63694;BME280;49839;51.798;10.954;2022-08-24T07:11:50;99542.72;;;29.11;nan
63694;BME280;49839;51.798;10.954;2022-08-24T07:14:18;99547.91;;;29.27;nan
63694;BME280;49839;51.798;10.954;2022-08-24T07:16:47;99546.34;;;29.61;nan
63694;BME280;49839;51.798;10.954;2022-08-24T07:19:16;99537.56;;;29.59;nan
63694;BME280;49839;51.798;10.954;2022-08-24T07:21:43;99544.56;;;29.75;nan
63694;BME280;49839;51.798;10.954;2022-08-24T07:24:11;99548.84;;;29.84;nan
63694;BME280;49839;51.798;10.954;2022-08-24T07:26:39;99548.75;;;29.71;nan
63694;BME280;49839;51.798;10.954;2022-08-24T07:29:09;99556.59;;;29.59;nan
63694;BME280;49839;51.798;10.954;2022-08-24T07:31:59;99550.53;;;29.85;nan
63694;BME280;49839;51.798;10.954;2022-08-24T07:34:28;99553.06;;;29.93;nan
63694;BME280;49839;51.798;10.954;2022-08-24T07:36:56;99550.03;;;30.03;nan
63694;BME280;49839;51.798;10.954;2022-08-24T07:39:25;99550.28;;;30.42;nan
63694;BME280;49839;51.798;10.954;2022-08-24T07:41:53;99551.75;;;30.45;nan
63694;BME280;49839;51.798;10.954;2022-08-24T07:44:38;99552.66;;;30.65;nan
63694;BME280;49839;51.798;10.954;2022-08-24T07:47:05;99555.38;;;30.65;nan
63694;BME280;49839;51.798;10.954;2022-08-24T07:49:54;99544.69;;;30.57;nan
63694;BME280;49839;51.798;10.954;2022-08-24T07:52:22;99542.78;;;30.51;nan
63694;BME280;49839;51.798;10.954;2022-08-24T07:54:49;99556.47;;;30.71;nan
63694;BME280;49839;51.798;10.954;2022-08-24T07:57:17;99552.13;;;30.35;nan
63694;BME280;49839;51.798;10.954;2022-08-24T07:59:45;99558.38;;;30.29;nan
63694;BME280;49839;51.798;10.954;2022-08-24T08:02:13;99552.66;;;30.65;nan
63694;BME280;49839;51.798;10.954;2022-08-24T08:04:40;99554.50;;;30.58;nan
63694;BME280;49839;51.798;10.954;2022-08-24T08:07:09;99558.41;;;30.36;nan
63694;BME280;49839;51.798;10.954;2022-08-24T08:09:40;99556.13;;;30.46;nan
63694;BME280;49839;51.798;10.954;2022-08-24T08:12:08;99557.31;;;30.71;nan
63694;BME280;49839;51.798;10.954;2022-08-24T08:14:35;99561.00;;;30.57;nan
63694;BME280;49839;51.798;10.954;2022-08-24T08:17:04;99565.72;;;30.77;nan
63694;BME280;49839;51.798;10.954;2022-08-24T08:19:32;99564.16;;;31.15;nan
63694;BME280;49839;51.798;10.954;2022-08-24T08:21:59;99568.81;;;31.35;nan
63694;BME280;49839;51.798;10.954;2022-08-24T08:24:47;99572.38;;;31.35;nan
63694;BME280;49839;51.798;10.954;2022-08-24T08:27:15;99575.59;;;31.78;nan
63694;BME280;49839;51.798;10.954;2022-08-24T08:29:43;99575.59;;;31.78;nan
63694;BME280;49839;51.798;10.954;2022-08-24T08:32:11;99567.56;;;32.23;nan
63694;BME280;49839;51.798;10.954;2022-08-24T08:34:42;99564.03;;;32.03;nan
63694;BME280;49839;51.798;10.954;2022-08-24T08:37:10;99562.13;;;32.17;nan
63694;BME280;49839;51.798;10.954;2022-08-24T08:39:39;99566.53;;;32.11;nan
63694;BME280;49839;51.798;10.954;2022-08-24T08:42:28;99560.81;;;32.46;nan
63694;BME280;49839;51.798;10.954;2022-08-24T08:45:08;99562.16;;;32.75;nan
63694;BME280;49839;51.798;10.954;2022-08-24T08:47:59;99555.69;;;32.69;nan
63694;BME280;49839;51.798;10.954;2022-08-24T08:50:38;99566.59;;;32.69;nan
63694;BME280;49839;51.798;10.954;2022-08-24T08:53:29;99553.28;;;32.41;nan
63694;BME280;49839;51.798;10.954;2022-08-24T08:56:08;99562.66;;;32.52;nan
63694;BME280;49839;51.798;10.954;2022-08-24T08:58:54;99560.84;;;32.91;nan
63694;BME280;49839;51.798;10.954;2022-08-24T09:01:33;99558.03;;;33.04;nan
63694;BME280;49839;51.798;10.954;2022-08-24T09:04:24;99553.56;;;33.16;nan
63694;BME280;49839;51.798;10.954;2022-08-24T09:07:17;99550.56;;;32.86;nan
63694;BME280;49839;51.798;10.954;2022-08-24T09:10:02;99553.88;;;33.33;nan
63694;BME280;49839;51.798;10.954;2022-08-24T09:12:48;99552.16;;;33.38;nan
63694;BME280;49839;51.798;10.954;2022-08-24T09:18:44;99547.88;;;33.74;nan
63694;BME280;49839;51.798;10.954;2022-08-24T09:21:37;99550.97;;;33.59;nan
63694;BME280;49839;51.798;10.954;2022-08-24T09:24:21;99548.22;;;33.84;nan
63694;BME280;49839;51.798;10.954;2022-08-24T09:26:56;99547.63;;;34.07;nan
63694;BME280;49839;51.798;10.954;2022-08-24T09:29:39;99544.91;;;33.82;nan
63694;BME280;49839;51.798;10.954;2022-08-24T09:32:24;99543.50;;;33.73;nan
63694;BME280;49839;51.798;10.954;2022-08-24T09:34:59;99549.72;;;34.05;nan
63694;BME280;49839;51.798;10.954;2022-08-24T09:37:33;99549.91;;;33.85;nan
63694;BME280;49839;51.798;10.954;2022-08-24T09:40:25;99539.25;;;33.77;nan
63694;BME280;49839;51.798;10.954;2022-08-24T09:46:35;99547.41;;;34.09;nan
63694;BME280;49839;51.798;10.954;2022-08-24T09:58:53;99537.38;;;33.78;nan
63694;BME280;49839;51.798;10.954;2022-08-24T10:01:27;99532.84;;;33.90;nan
63694;BME280;49839;51.798;10.954;2022-08-24T10:04:10;99527.56;;;33.95;nan
63694;BME280;49839;51.798;10.954;2022-08-24T10:06:49;99527.72;;;34.18;nan
63694;BME280;49839;51.798;10.954;2022-08-24T10:09:47;99528.66;;;34.49;nan
63694;BME280;49839;51.798;10.954;2022-08-24T10:12:33;99521.66;;;34.83;nan
63694;BME280;49839;51.798;10.954;2022-08-24T10:15:05;99517.78;;;34.61;nan
63694;BME280;49839;51.798;10.954;2022-08-24T10:17:42;99525.16;;;34.90;nan
63694;BME280;49839;51.798;10.954;2022-08-24T10:20:19;99512.91;;;35.23;nan
63694;BME280;49839;51.798;10.954;2022-08-24T10:23:08;99516.09;;;35.50;nan
63694;BME280;49839;51.798;10.954;2022-08-24T10:25:39;99505.38;;;35.72;nan
63694;BME280;49839;51.798;10.954;2022-08-24T10:28:35;99503.97;;;35.27;nan
63694;BME280;49839;51.798;10.954;2022-08-24T10:31:07;99504.16;;;35.44;nan
63694;BME280;49839;51.798;10.954;2022-08-24T10:33:50;99504.28;;;35.73;nan
63694;BME280;49839;51.798;10.954;2022-08-24T10:36:32;99497.28;;;35.89;nan
63694;BME280;49839;51.798;10.954;2022-08-24T10:39:40;99498.97;;;35.24;nan
63694;BME280;49839;51.798;10.954;2022-08-24T10:42:39;99506.38;;;35.24;nan
63694;BME280;49839;51.798;10.954;2022-08-24T10:45:51;99505.88;;;35.27;nan
63694;BME280;49839;51.798;10.954;2022-08-24T10:49:02;99503.75;;;35.17;nan
63694;BME280;49839;51.798;10.954;2022-08-24T10:51:38;99511.56;;;35.44;nan
63694;BME280;49839;51.798;10.954;2022-08-24T10:54:17;99505.19;;;35.32;nan
63694;BME280;49839;51.798;10.954;2022-08-24T10:56:54;99502.31;;;35.26;nan
63694;BME280;49839;51.798;10.954;2022-08-24T10:59:30;99492.13;;;34.73;nan
63694;BME280;49839;51.798;10.954;2022-08-24T11:02:05;99507.50;;;34.38;nan
63694;BME280;49839;51.798;10.954;2022-08-24T11:04:37;99501.75;;;33.84;nan
63694;BME280;49839;51.798;10.954;2022-08-24T11:07:15;99503.97;;;33.51;nan
63694;BME280;49839;51.798;10.954;2022-08-24T11:09:47;99487.16;;;33.22;nan
63694;BME280;49839;51.798;10.954;2022-08-24T11:12:26;99486.22;;;32.65;nan
63694;BME280;49839;51.798;10.954;2022-08-24T11:14:57;99493.75;;;32.18;nan
63694;BME280;49839;51.798;10.954;2022-08-24T11:17:28;99487.97;;;31.42;nan
63694;BME280;49839;51.798;10.954;2022-08-24T11:19:56;99490.66;;;31.09;nan
63694;BME280;49839;51.798;10.954;2022-08-24T11:22:36;99485.91;;;31.24;nan
63694;BME280;49839;51.798;10.954;2022-08-24T11:25:14;99481.66;;;31.15;nan
63694;BME280;49839;51.798;10.954;2022-08-24T11:27:44;99490.41;;;30.90;nan
63694;BME280;49839;51.798;10.954;2022-08-24T11:30:22;99494.97;;;30.77;nan
63694;BME280;49839;51.798;10.954;2022-08-24T11:32:53;99480.56;;;30.83;nan
63694;BME280;49839;51.798;10.954;2022-08-24T11:35:24;99485.34;;;30.67;nan
63694;BME280;49839;51.798;10.954;2022-08-24T11:37:55;99487.19;;;30.67;nan
63694;BME280;49839;51.798;10.954;2022-08-24T11:40:29;99487.56;;;30.51;nan
63694;BME280;49839;51.798;10.954;2022-08-24T11:43:08;99477.19;;;30.26;nan
63694;BME280;49839;51.798;10.954;2022-08-24T11:45:41;99484.94;;;30.23;nan
63694;BME280;49839;51.798;10.954;2022-08-24T11:48:20;99486.53;;;29.76;nan
63694;BME280;49839;51.798;10.954;2022-08-24T11:50:57;99485.19;;;29.65;nan
63694;BME280;49839;51.798;10.954;2022-08-24T11:53:34;99490.63;;;29.65;nan
63694;BME280;49839;51.798;10.954;2022-08-24T11:56:14;99488.56;;;29.46;nan
63694;BME280;49839;51.798;10.954;2022-08-24T11:58:52;99485.84;;;29.46;nan
63694;BME280;49839;51.798;10.954;2022-08-24T12:01:25;99486.91;;;29.73;nan
63694;BME280;49839;51.798;10.954;2022-08-24T12:04:06;99487.84;;;29.86;nan
63694;BME280;49839;51.798;10.954;2022-08-24T12:06:45;99497.84;;;29.86;nan
63694;BME280;49839;51.798;10.954;2022-08-24T12:09:27;99496.38;;;29.55;nan
63694;BME280;49839;51.798;10.954;2022-08-24T12:12:09;99491.16;;;29.54;nan
63694;BME280;49839;51.798;10.954;2022-08-24T12:14:43;99487.50;;;29.68;nan
63694;BME280;49839;51.798;10.954;2022-08-24T12:17:19;99491.84;;;29.62;nan
63694;BME280;49839;51.798;10.954;2022-08-24T12:19:54;99489.88;;;29.78;nan
63694;BME280;49839;51.798;10.954;2022-08-24T12:22:26;99490.31;;;29.81;nan
63694;BME280;49839;51.798;10.954;2022-08-24T12:24:56;99497.81;;;29.79;nan
63694;BME280;49839;51.798;10.954;2022-08-24T12:27:27;99488.16;;;29.49;nan
63694;BME280;49839;51.798;10.954;2022-08-24T12:29:59;99485.09;;;29.52;nan
63694;BME280;49839;51.798;10.954;2022-08-24T12:32:34;99483.47;;;29.57;nan
63694;BME280;49839;51.798;10.954;2022-08-24T12:35:08;99480.09;;;29.55;nan
63694;BME280;49839;51.798;10.954;2022-08-24T12:37:42;99488.72;;;29.37;nan
63694;BME280;49839;51.798;10.954;2022-08-24T12:40:20;99486.19;;;29.36;nan
63694;BME280;49839;51.798;10.954;2022-08-24T12:42:53;99484.66;;;29.05;nan
63694;BME280;49839;51.798;10.954;2022-08-24T12:45:23;99481.53;;;28.87;nan
63694;BME280;49839;51.798;10.954;2022-08-24T12:47:55;99481.97;;;28.91;nan
63694;BME280;49839;51.798;10.954;2022-08-24T12:50:30;99478.41;;;28.90;nan
63694;BME280;49839;51.798;10.954;2022-08-24T12:53:26;99480.25;;;29.04;nan
63694;BME280;49839;51.798;10.954;2022-08-24T12:56:21;99478.69;;;29.17;nan
63694;BME280;49839;51.798;10.954;2022-08-24T12:59:05;99475.72;;;29.33;nan
63694;BME280;49839;51.798;10.954;2022-08-24T13:01:38;99478.88;;;29.36;nan
63694;BME280;49839;51.798;10.954;2022-08-24T13:04:15;99480.13;;;29.34;nan
63694;BME280;49839;51.798;10.954;2022-08-24T13:06:49;99476.88;;;29.24;nan
63694;BME280;49839;51.798;10.954;2022-08-24T13:09:30;99472.75;;;29.28;nan
63694;BME280;49839;51.798;10.954;2022-08-24T13:15:20;99469.94;;;29.42;nan
63694;BME280;49839;51.798;10.954;2022-08-24T13:17:49;99474.47;;;29.35;nan
63694;BME280;49839;51.798;10.954;2022-08-24T13:20:20;99472.75;;;29.28;nan
63694;BME280;49839;51.798;10.954;2022-08-24T13:23:03;99467.72;;;29.25;nan
63694;BME280;49839;51.798;10.954;2022-08-24T13:25:54;99458.13;;;29.29;nan
63694;BME280;49839;51.798;10.954;2022-08-24T13:28:31;99461.94;;;29.34;nan
63694;BME280;49839;51.798;10.954;2022-08-24T13:31:20;99461.69;;;29.29;nan
63694;BME280;49839;51.798;10.954;2022-08-24T13:33:53;99462.34;;;29.31;nan
63694;BME280;49839;51.798;10.954;2022-08-24T13:36:47;99462.34;;;29.31;nan
63694;BME280;49839;51.798;10.954;2022-08-24T13:39:45;99460.22;;;29.27;nan
63694;BME280;49839;51.798;10.954;2022-08-24T13:42:26;99460.38;;;29.19;nan
63694;BME280;49839;51.798;10.954;2022-08-24T13:45:25;99460.31;;;29.12;nan
63694;BME280;49839;51.798;10.954;2022-08-24T13:48:02;99454.06;;;29.11;nan
63694;BME280;49839;51.798;10.954;2022-08-24T13:50:47;99453.31;;;29.24;nan
63694;BME280;49839;51.798;10.954;2022-08-24T13:53:43;99457.75;;;29.32;nan
63694;BME280;49839;51.798;10.954;2022-08-24T13:56:29;99460.16;;;29.20;nan
63694;BME280;49839;51.798;10.954;2022-08-24T13:59:07;99443.78;;;29.07;nan
63694;BME280;49839;51.798;10.954;2022-08-24T14:01:41;99450.09;;;29.14;nan